sensor_id;sensor_type;location;lat;lon;timestamp;P1;durP1;ratioP1;P2;durP2;ratioP2
16242;SDS011;11719;51.052;6.982;2024-02-16T00:01:08;0.70;;;0.40;;
16242;SDS011;11719;51.052;6.982;2024-02-16T00:03:33;1.97;;;0.50;;
16242;SDS011;11719;51.052;6.982;2024-02-16T00:06:02;0.70;;;0.40;;
16242;SDS011;11719;51.052;6.982;2024-02-16T00:08:33;0.97;;;0.50;;
16242;SDS011;11719;51.052;6.982;2024-02-16T00:11:07;0.70;;;0.60;;
16242;SDS011;11719;51.052;6.982;2024-02-16T00:13:46;0.60;;;0.47;;
16242;SDS011;11719;51.052;6.982;2024-02-16T00:16:15;0.70;;;0.70;;
16242;SDS011;11719;51.052;6.982;2024-02-16T00:18:43;0.97;;;0.53;;
16242;SDS011;11719;51.052;6.982;2024-02-16T00:21:09;1.10;;;0.57;;
16242;SDS011;11719;51.052;6.982;2024-02-16T00:23:42;0.70;;;0.60;;
16242;SDS011;11719;51.052;6.982;2024-02-16T00:26:22;2.07;;;0.60;;
16242;SDS011;11719;51.052;6.982;2024-02-16T00:29:00;1.07;;;0.97;;
16242;SDS011;11719;51.052;6.982;2024-02-16T00:31:42;1.17;;;0.77;;
16242;SDS011;11719;51.052;6.982;2024-02-16T00:34:22;0.60;;;0.30;;
16242;SDS011;11719;51.052;6.982;2024-02-16T00:36:50;0.97;;;0.50;;
16242;SDS011;11719;51.052;6.982;2024-02-16T00:39:19;1.33;;;0.67;;
16242;SDS011;11719;51.052;6.982;2024-02-16T00:41:47;0.83;;;0.40;;
16242;SDS011;11719;51.052;6.982;2024-02-16T00:44:41;1.80;;;0.80;;
16242;SDS011;11719;51.052;6.982;2024-02-16T00:47:07;1.27;;;0.60;;
16242;SDS011;11719;51.052;6.982;2024-02-16T00:50:07;1.33;;;0.87;;
16242;SDS011;11719;51.052;6.982;2024-02-16T00:52:34;1.40;;;0.60;;
16242;SDS011;11719;51.052;6.982;2024-02-16T00:55:00;0.30;;;0.30;;
16242;SDS011;11719;51.052;6.982;2024-02-16T00:57:28;1.17;;;0.90;;
16242;SDS011;11719;51.052;6.982;2024-02-16T00:59:56;1.10;;;0.50;;
16242;SDS011;11719;51.052;6.982;2024-02-16T01:02:30;1.00;;;0.90;;
16242;SDS011;11719;51.052;6.982;2024-02-16T01:05:05;0.90;;;0.47;;
16242;SDS011;11719;51.052;6.982;2024-02-16T01:07:35;1.43;;;0.73;;
16242;SDS011;11719;51.052;6.982;2024-02-16T01:10:04;0.47;;;0.40;;
16242;SDS011;11719;51.052;6.982;2024-02-16T01:12:51;0.83;;;0.50;;
16242;SDS011;11719;51.052;6.982;2024-02-16T01:15:27;1.07;;;0.83;;
16242;SDS011;11719;51.052;6.982;2024-02-16T01:17:58;4.47;;;0.90;;
16242;SDS011;11719;51.052;6.982;2024-02-16T01:20:25;0.50;;;0.30;;
16242;SDS011;11719;51.052;6.982;2024-02-16T01:22:53;0.70;;;0.43;;
16242;SDS011;11719;51.052;6.982;2024-02-16T01:25:28;1.17;;;0.50;;
16242;SDS011;11719;51.052;6.982;2024-02-16T01:28:16;0.43;;;0.43;;
16242;SDS011;11719;51.052;6.982;2024-02-16T01:30:45;0.93;;;0.47;;
16242;SDS011;11719;51.052;6.982;2024-02-16T01:33:21;1.03;;;0.67;;
16242;SDS011;11719;51.052;6.982;2024-02-16T01:35:52;1.20;;;0.57;;
16242;SDS011;11719;51.052;6.982;2024-02-16T01:38:23;0.33;;;0.33;;
16242;SDS011;11719;51.052;6.982;2024-02-16T01:40:53;0.67;;;0.40;;
16242;SDS011;11719;51.052;6.982;2024-02-16T01:43:23;0.97;;;0.63;;
16242;SDS011;11719;51.052;6.982;2024-02-16T01:45:53;0.63;;;0.57;;
16242;SDS011;11719;51.052;6.982;2024-02-16T01:48:19;0.73;;;0.40;;
16242;SDS011;11719;51.052;6.982;2024-02-16T01:50:59;0.93;;;0.47;;
16242;SDS011;11719;51.052;6.982;2024-02-16T01:53:27;1.23;;;0.60;;
16242;SDS011;11719;51.052;6.982;2024-02-16T01:55:56;1.17;;;0.40;;
16242;SDS011;11719;51.052;6.982;2024-02-16T01:58:26;0.80;;;0.50;;
16242;SDS011;11719;51.052;6.982;2024-02-16T02:00:52;0.53;;;0.40;;
16242;SDS011;11719;51.052;6.982;2024-02-16T02:03:17;0.73;;;0.40;;
16242;SDS011;11719;51.052;6.982;2024-02-16T02:05:46;0.60;;;0.43;;
16242;SDS011;11719;51.052;6.982;2024-02-16T02:08:12;1.07;;;0.60;;
16242;SDS011;11719;51.052;6.982;2024-02-16T02:10:40;0.70;;;0.33;;
16242;SDS011;11719;51.052;6.982;2024-02-16T02:15:47;1.30;;;0.60;;
16242;SDS011;11719;51.052;6.982;2024-02-16T02:18:26;0.73;;;0.43;;
16242;SDS011;11719;51.052;6.982;2024-02-16T02:20:54;0.87;;;0.70;;
16242;SDS011;11719;51.052;6.982;2024-02-16T02:23:22;0.90;;;0.50;;
16242;SDS011;11719;51.052;6.982;2024-02-16T02:25:47;0.70;;;0.53;;
16242;SDS011;11719;51.052;6.982;2024-02-16T02:28:15;2.07;;;0.40;;
16242;SDS011;11719;51.052;6.982;2024-02-16T02:30:44;1.37;;;0.97;;
16242;SDS011;11719;51.052;6.982;2024-02-16T02:33:16;1.20;;;0.70;;
16242;SDS011;11719;51.052;6.982;2024-02-16T02:35:44;0.67;;;0.40;;
16242;SDS011;11719;51.052;6.982;2024-02-16T02:38:12;2.93;;;0.80;;
16242;SDS011;11719;51.052;6.982;2024-02-16T02:40:37;1.20;;;0.67;;
16242;SDS011;11719;51.052;6.982;2024-02-16T02:43:18;1.13;;;0.50;;
16242;SDS011;11719;51.052;6.982;2024-02-16T02:45:46;0.57;;;0.50;;
16242;SDS011;11719;51.052;6.982;2024-02-16T02:48:18;0.73;;;0.60;;
16242;SDS011;11719;51.052;6.982;2024-02-16T02:50:46;0.60;;;0.60;;
16242;SDS011;11719;51.052;6.982;2024-02-16T02:53:12;1.47;;;0.70;;
16242;SDS011;11719;51.052;6.982;2024-02-16T02:55:56;0.70;;;0.40;;
16242;SDS011;11719;51.052;6.982;2024-02-16T02:58:25;0.87;;;0.80;;
16242;SDS011;11719;51.052;6.982;2024-02-16T03:00:53;0.40;;;0.40;;
16242;SDS011;11719;51.052;6.982;2024-02-16T03:03:29;0.67;;;0.40;;
16242;SDS011;11719;51.052;6.982;2024-02-16T03:05:57;0.70;;;0.40;;
16242;SDS011;11719;51.052;6.982;2024-02-16T03:08:23;1.17;;;0.73;;
16242;SDS011;11719;51.052;6.982;2024-02-16T03:10:49;0.73;;;0.40;;
16242;SDS011;11719;51.052;6.982;2024-02-16T03:13:14;6.00;;;0.77;;
16242;SDS011;11719;51.052;6.982;2024-02-16T03:15:43;2.07;;;0.57;;
16242;SDS011;11719;51.052;6.982;2024-02-16T03:18:09;2.30;;;0.90;;
16242;SDS011;11719;51.052;6.982;2024-02-16T03:20:35;2.13;;;0.80;;
16242;SDS011;11719;51.052;6.982;2024-02-16T03:23:08;2.73;;;0.87;;
16242;SDS011;11719;51.052;6.982;2024-02-16T03:25:39;3.50;;;0.97;;
16242;SDS011;11719;51.052;6.982;2024-02-16T03:28:12;1.90;;;0.80;;
16242;SDS011;11719;51.052;6.982;2024-02-16T03:30:47;0.83;;;0.60;;
16242;SDS011;11719;51.052;6.982;2024-02-16T03:33:13;1.30;;;0.60;;
16242;SDS011;11719;51.052;6.982;2024-02-16T03:35:38;0.60;;;0.53;;
16242;SDS011;11719;51.052;6.982;2024-02-16T03:38:05;4.70;;;1.20;;
16242;SDS011;11719;51.052;6.982;2024-02-16T03:40:33;0.93;;;0.83;;
16242;SDS011;11719;51.052;6.982;2024-02-16T03:43:14;0.53;;;0.50;;
16242;SDS011;11719;51.052;6.982;2024-02-16T03:45:39;1.87;;;0.87;;
16242;SDS011;11719;51.052;6.982;2024-02-16T03:48:05;2.00;;;0.60;;
16242;SDS011;11719;51.052;6.982;2024-02-16T03:50:31;1.70;;;0.80;;
16242;SDS011;11719;51.052;6.982;2024-02-16T03:53:05;0.90;;;0.60;;
16242;SDS011;11719;51.052;6.982;2024-02-16T03:55:31;0.80;;;0.50;;
16242;SDS011;11719;51.052;6.982;2024-02-16T03:58:01;0.60;;;0.30;;
16242;SDS011;11719;51.052;6.982;2024-02-16T04:00:27;0.77;;;0.77;;
16242;SDS011;11719;51.052;6.982;2024-02-16T04:02:57;2.00;;;0.70;;
16242;SDS011;11719;51.052;6.982;2024-02-16T04:05:29;1.20;;;0.60;;
16242;SDS011;11719;51.052;6.982;2024-02-16T04:08:07;0.63;;;0.60;;
16242;SDS011;11719;51.052;6.982;2024-02-16T04:10:33;1.80;;;0.60;;
16242;SDS011;11719;51.052;6.982;2024-02-16T04:13:00;1.20;;;0.60;;
16242;SDS011;11719;51.052;6.982;2024-02-16T04:15:27;1.30;;;0.80;;
16242;SDS011;11719;51.052;6.982;2024-02-16T04:17:52;0.63;;;0.47;;
16242;SDS011;11719;51.052;6.982;2024-02-16T04:20:20;1.23;;;0.70;;
16242;SDS011;11719;51.052;6.982;2024-02-16T04:22:46;0.63;;;0.33;;
16242;SDS011;11719;51.052;6.982;2024-02-16T04:25:12;0.70;;;0.50;;
16242;SDS011;11719;51.052;6.982;2024-02-16T04:27:38;0.87;;;0.50;;
16242;SDS011;11719;51.052;6.982;2024-02-16T04:30:04;1.30;;;0.83;;
16242;SDS011;11719;51.052;6.982;2024-02-16T04:32:31;0.83;;;0.60;;
16242;SDS011;11719;51.052;6.982;2024-02-16T04:35:07;0.97;;;0.57;;
16242;SDS011;11719;51.052;6.982;2024-02-16T04:37:41;1.53;;;0.93;;
16242;SDS011;11719;51.052;6.982;2024-02-16T04:40:07;3.80;;;1.10;;
16242;SDS011;11719;51.052;6.982;2024-02-16T04:43:16;1.10;;;0.80;;
16242;SDS011;11719;51.052;6.982;2024-02-16T04:45:49;1.37;;;0.60;;
16242;SDS011;11719;51.052;6.982;2024-02-16T04:48:16;1.17;;;0.50;;
16242;SDS011;11719;51.052;6.982;2024-02-16T04:50:41;1.70;;;0.80;;
16242;SDS011;11719;51.052;6.982;2024-02-16T04:53:15;1.80;;;0.60;;
16242;SDS011;11719;51.052;6.982;2024-02-16T04:55:40;1.77;;;0.53;;
16242;SDS011;11719;51.052;6.982;2024-02-16T04:58:06;2.53;;;0.90;;
16242;SDS011;11719;51.052;6.982;2024-02-16T05:00:41;0.90;;;0.53;;
16242;SDS011;11719;51.052;6.982;2024-02-16T05:03:10;1.33;;;0.90;;
16242;SDS011;11719;51.052;6.982;2024-02-16T05:05:35;1.20;;;0.70;;
16242;SDS011;11719;51.052;6.982;2024-02-16T05:08:01;4.23;;;0.97;;
16242;SDS011;11719;51.052;6.982;2024-02-16T05:10:33;3.67;;;0.90;;
16242;SDS011;11719;51.052;6.982;2024-02-16T05:12:58;1.13;;;0.80;;
16242;SDS011;11719;51.052;6.982;2024-02-16T05:15:29;1.13;;;0.80;;
16242;SDS011;11719;51.052;6.982;2024-02-16T05:17:56;1.83;;;1.13;;
16242;SDS011;11719;51.052;6.982;2024-02-16T05:20:24;2.80;;;0.90;;
16242;SDS011;11719;51.052;6.982;2024-02-16T05:22:52;0.63;;;0.50;;
16242;SDS011;11719;51.052;6.982;2024-02-16T05:25:23;2.33;;;1.20;;
16242;SDS011;11719;51.052;6.982;2024-02-16T05:27:53;2.00;;;0.73;;
16242;SDS011;11719;51.052;6.982;2024-02-16T05:30:19;0.83;;;0.53;;
16242;SDS011;11719;51.052;6.982;2024-02-16T05:32:45;2.87;;;1.10;;
16242;SDS011;11719;51.052;6.982;2024-02-16T05:35:10;2.00;;;0.80;;
16242;SDS011;11719;51.052;6.982;2024-02-16T05:37:56;0.70;;;0.63;;
16242;SDS011;11719;51.052;6.982;2024-02-16T05:40:21;0.47;;;0.43;;
16242;SDS011;11719;51.052;6.982;2024-02-16T05:42:49;2.03;;;1.27;;
16242;SDS011;11719;51.052;6.982;2024-02-16T05:45:16;0.93;;;0.70;;
16242;SDS011;11719;51.052;6.982;2024-02-16T05:47:56;1.10;;;0.60;;
16242;SDS011;11719;51.052;6.982;2024-02-16T05:50:39;1.40;;;0.80;;
16242;SDS011;11719;51.052;6.982;2024-02-16T05:53:08;0.70;;;0.50;;
16242;SDS011;11719;51.052;6.982;2024-02-16T05:55:37;1.87;;;0.87;;
16242;SDS011;11719;51.052;6.982;2024-02-16T05:58:02;0.93;;;0.60;;
16242;SDS011;11719;51.052;6.982;2024-02-16T06:00:44;2.37;;;1.03;;
16242;SDS011;11719;51.052;6.982;2024-02-16T06:03:13;0.67;;;0.50;;
16242;SDS011;11719;51.052;6.982;2024-02-16T06:05:41;1.73;;;0.83;;
16242;SDS011;11719;51.052;6.982;2024-02-16T06:08:17;1.77;;;0.70;;
16242;SDS011;11719;51.052;6.982;2024-02-16T06:10:43;1.77;;;0.70;;
16242;SDS011;11719;51.052;6.982;2024-02-16T06:16:40;1.03;;;0.93;;
16242;SDS011;11719;51.052;6.982;2024-02-16T06:19:14;1.37;;;0.80;;
16242;SDS011;11719;51.052;6.982;2024-02-16T06:21:54;5.83;;;0.83;;
16242;SDS011;11719;51.052;6.982;2024-02-16T06:24:22;1.13;;;0.70;;
16242;SDS011;11719;51.052;6.982;2024-02-16T06:26:48;2.60;;;0.90;;
16242;SDS011;11719;51.052;6.982;2024-02-16T06:29:33;1.70;;;1.00;;
16242;SDS011;11719;51.052;6.982;2024-02-16T06:31:59;1.80;;;1.27;;
16242;SDS011;11719;51.052;6.982;2024-02-16T06:34:33;1.70;;;1.07;;
16242;SDS011;11719;51.052;6.982;2024-02-16T06:37:04;1.20;;;0.60;;
16242;SDS011;11719;51.052;6.982;2024-02-16T06:39:30;1.17;;;0.93;;
16242;SDS011;11719;51.052;6.982;2024-02-16T06:42:13;1.10;;;0.50;;
16242;SDS011;11719;51.052;6.982;2024-02-16T06:44:51;1.40;;;0.80;;
16242;SDS011;11719;51.052;6.982;2024-02-16T06:47:16;1.97;;;1.03;;
16242;SDS011;11719;51.052;6.982;2024-02-16T06:49:51;2.83;;;0.63;;
16242;SDS011;11719;51.052;6.982;2024-02-16T06:52:20;0.60;;;0.60;;
16242;SDS011;11719;51.052;6.982;2024-02-16T06:54:45;7.37;;;0.93;;
16242;SDS011;11719;51.052;6.982;2024-02-16T06:57:20;2.40;;;0.97;;
16242;SDS011;11719;51.052;6.982;2024-02-16T06:59:50;2.20;;;1.17;;
16242;SDS011;11719;51.052;6.982;2024-02-16T07:02:17;2.53;;;1.40;;
16242;SDS011;11719;51.052;6.982;2024-02-16T07:04:50;5.27;;;1.50;;
16242;SDS011;11719;51.052;6.982;2024-02-16T07:07:16;2.90;;;1.40;;
16242;SDS011;11719;51.052;6.982;2024-02-16T07:09:45;2.70;;;1.50;;
16242;SDS011;11719;51.052;6.982;2024-02-16T07:12:11;2.23;;;1.37;;
16242;SDS011;11719;51.052;6.982;2024-02-16T07:14:40;3.17;;;1.00;;
16242;SDS011;11719;51.052;6.982;2024-02-16T07:17:08;2.03;;;1.20;;
16242;SDS011;11719;51.052;6.982;2024-02-16T07:19:37;3.00;;;1.30;;
16242;SDS011;11719;51.052;6.982;2024-02-16T07:22:05;1.97;;;1.17;;
16242;SDS011;11719;51.052;6.982;2024-02-16T07:24:35;2.60;;;1.37;;
16242;SDS011;11719;51.052;6.982;2024-02-16T07:27:01;3.27;;;1.17;;
16242;SDS011;11719;51.052;6.982;2024-02-16T07:29:27;1.77;;;1.13;;
16242;SDS011;11719;51.052;6.982;2024-02-16T07:31:53;2.23;;;1.40;;
16242;SDS011;11719;51.052;6.982;2024-02-16T07:34:18;2.47;;;1.20;;
16242;SDS011;11719;51.052;6.982;2024-02-16T07:36:49;2.07;;;1.00;;
16242;SDS011;11719;51.052;6.982;2024-02-16T07:39:24;2.57;;;1.10;;
16242;SDS011;11719;51.052;6.982;2024-02-16T07:41:50;0.63;;;0.63;;
16242;SDS011;11719;51.052;6.982;2024-02-16T07:44:25;2.30;;;1.27;;
16242;SDS011;11719;51.052;6.982;2024-02-16T07:46:59;4.33;;;1.53;;
16242;SDS011;11719;51.052;6.982;2024-02-16T07:49:26;2.37;;;1.20;;
16242;SDS011;11719;51.052;6.982;2024-02-16T07:51:59;1.80;;;1.10;;
16242;SDS011;11719;51.052;6.982;2024-02-16T07:54:34;3.40;;;1.60;;
16242;SDS011;11719;51.052;6.982;2024-02-16T07:57:21;3.17;;;1.20;;
16242;SDS011;11719;51.052;6.982;2024-02-16T07:59:50;2.67;;;1.93;;
16242;SDS011;11719;51.052;6.982;2024-02-16T08:02:35;2.60;;;1.67;;
16242;SDS011;11719;51.052;6.982;2024-02-16T08:05:14;2.00;;;1.20;;
16242;SDS011;11719;51.052;6.982;2024-02-16T08:07:55;2.13;;;1.00;;
16242;SDS011;11719;51.052;6.982;2024-02-16T08:10:33;2.80;;;0.80;;
16242;SDS011;11719;51.052;6.982;2024-02-16T08:13:02;1.97;;;0.90;;
16242;SDS011;11719;51.052;6.982;2024-02-16T08:15:42;1.20;;;0.97;;
16242;SDS011;11719;51.052;6.982;2024-02-16T08:18:22;1.10;;;0.83;;
16242;SDS011;11719;51.052;6.982;2024-02-16T08:20:57;1.03;;;0.70;;
16242;SDS011;11719;51.052;6.982;2024-02-16T08:23:30;1.87;;;0.70;;
16242;SDS011;11719;51.052;6.982;2024-02-16T08:26:11;1.40;;;0.83;;
16242;SDS011;11719;51.052;6.982;2024-02-16T08:28:59;1.47;;;0.90;;
16242;SDS011;11719;51.052;6.982;2024-02-16T08:31:36;2.83;;;1.00;;
16242;SDS011;11719;51.052;6.982;2024-02-16T08:34:09;4.17;;;1.10;;
16242;SDS011;11719;51.052;6.982;2024-02-16T08:36:46;1.03;;;0.73;;
16242;SDS011;11719;51.052;6.982;2024-02-16T08:39:12;1.43;;;0.70;;
16242;SDS011;11719;51.052;6.982;2024-02-16T08:41:51;3.27;;;0.93;;
16242;SDS011;11719;51.052;6.982;2024-02-16T08:44:26;1.53;;;0.97;;
16242;SDS011;11719;51.052;6.982;2024-02-16T08:46:59;2.77;;;1.20;;
16242;SDS011;11719;51.052;6.982;2024-02-16T08:49:41;2.83;;;1.40;;
16242;SDS011;11719;51.052;6.982;2024-02-16T08:52:24;3.43;;;1.17;;
16242;SDS011;11719;51.052;6.982;2024-02-16T08:54:53;5.87;;;1.13;;
16242;SDS011;11719;51.052;6.982;2024-02-16T08:57:48;3.30;;;1.40;;
16242;SDS011;11719;51.052;6.982;2024-02-16T09:00:28;0.80;;;0.50;;
16242;SDS011;11719;51.052;6.982;2024-02-16T09:03:06;2.77;;;1.13;;
16242;SDS011;11719;51.052;6.982;2024-02-16T09:05:38;3.63;;;1.43;;
16242;SDS011;11719;51.052;6.982;2024-02-16T09:08:09;1.53;;;0.90;;
16242;SDS011;11719;51.052;6.982;2024-02-16T09:10:40;3.93;;;1.27;;
16242;SDS011;11719;51.052;6.982;2024-02-16T09:13:06;1.93;;;1.07;;
16242;SDS011;11719;51.052;6.982;2024-02-16T09:15:35;1.50;;;1.00;;
16242;SDS011;11719;51.052;6.982;2024-02-16T09:18:38;3.33;;;1.20;;
16242;SDS011;11719;51.052;6.982;2024-02-16T09:21:12;1.77;;;1.27;;
16242;SDS011;11719;51.052;6.982;2024-02-16T09:23:42;4.40;;;1.07;;
16242;SDS011;11719;51.052;6.982;2024-02-16T09:26:26;2.03;;;0.90;;
16242;SDS011;11719;51.052;6.982;2024-02-16T09:29:00;2.97;;;1.10;;
16242;SDS011;11719;51.052;6.982;2024-02-16T09:31:28;1.97;;;0.90;;
16242;SDS011;11719;51.052;6.982;2024-02-16T09:34:13;1.27;;;0.77;;
16242;SDS011;11719;51.052;6.982;2024-02-16T09:36:43;1.73;;;1.20;;
16242;SDS011;11719;51.052;6.982;2024-02-16T09:39:29;3.07;;;1.03;;
16242;SDS011;11719;51.052;6.982;2024-02-16T09:42:06;0.63;;;0.63;;
16242;SDS011;11719;51.052;6.982;2024-02-16T09:44:37;1.30;;;1.00;;
16242;SDS011;11719;51.052;6.982;2024-02-16T09:47:10;3.37;;;1.50;;
16242;SDS011;11719;51.052;6.982;2024-02-16T09:49:47;0.90;;;0.83;;
16242;SDS011;11719;51.052;6.982;2024-02-16T09:52:41;1.93;;;1.00;;
16242;SDS011;11719;51.052;6.982;2024-02-16T09:55:38;3.73;;;1.30;;
16242;SDS011;11719;51.052;6.982;2024-02-16T09:58:23;2.03;;;0.90;;
16242;SDS011;11719;51.052;6.982;2024-02-16T10:01:07;1.53;;;1.03;;
16242;SDS011;11719;51.052;6.982;2024-02-16T10:03:44;2.63;;;1.40;;
16242;SDS011;11719;51.052;6.982;2024-02-16T10:06:44;1.77;;;0.93;;
16242;SDS011;11719;51.052;6.982;2024-02-16T10:09:25;1.63;;;1.30;;
16242;SDS011;11719;51.052;6.982;2024-02-16T10:12:00;2.10;;;1.20;;
16242;SDS011;11719;51.052;6.982;2024-02-16T10:14:40;3.17;;;1.13;;
16242;SDS011;11719;51.052;6.982;2024-02-16T10:17:25;2.50;;;1.00;;
16242;SDS011;11719;51.052;6.982;2024-02-16T10:19:57;3.80;;;1.27;;
16242;SDS011;11719;51.052;6.982;2024-02-16T10:22:37;1.80;;;1.00;;
16242;SDS011;11719;51.052;6.982;2024-02-16T10:25:09;3.97;;;1.40;;
16242;SDS011;11719;51.052;6.982;2024-02-16T10:27:37;2.97;;;1.53;;
16242;SDS011;11719;51.052;6.982;2024-02-16T10:30:20;2.50;;;0.90;;
16242;SDS011;11719;51.052;6.982;2024-02-16T10:32:57;2.57;;;1.30;;
16242;SDS011;11719;51.052;6.982;2024-02-16T10:35:26;2.00;;;1.30;;
16242;SDS011;11719;51.052;6.982;2024-02-16T10:38:11;1.70;;;1.20;;
16242;SDS011;11719;51.052;6.982;2024-02-16T10:43:41;7.10;;;1.20;;
16242;SDS011;11719;51.052;6.982;2024-02-16T10:46:08;1.33;;;0.77;;
16242;SDS011;11719;51.052;6.982;2024-02-16T10:48:35;2.87;;;1.40;;
16242;SDS011;11719;51.052;6.982;2024-02-16T10:51:01;2.30;;;1.30;;
16242;SDS011;11719;51.052;6.982;2024-02-16T10:53:40;1.57;;;0.80;;
16242;SDS011;11719;51.052;6.982;2024-02-16T11:00:00;2.43;;;1.20;;
16242;SDS011;11719;51.052;6.982;2024-02-16T11:02:28;1.80;;;1.13;;
16242;SDS011;11719;51.052;6.982;2024-02-16T11:05:51;8.70;;;1.43;;
16242;SDS011;11719;51.052;6.982;2024-02-16T11:11:39;1.83;;;1.00;;
16242;SDS011;11719;51.052;6.982;2024-02-16T11:17:31;3.47;;;1.47;;
16242;SDS011;11719;51.052;6.982;2024-02-16T11:20:00;5.80;;;1.60;;
16242;SDS011;11719;51.052;6.982;2024-02-16T11:22:32;2.27;;;1.50;;
16242;SDS011;11719;51.052;6.982;2024-02-16T11:25:06;2.13;;;1.13;;
16242;SDS011;11719;51.052;6.982;2024-02-16T11:27:34;3.23;;;1.00;;
16242;SDS011;11719;51.052;6.982;2024-02-16T11:30:04;3.90;;;1.73;;
16242;SDS011;11719;51.052;6.982;2024-02-16T11:32:38;4.03;;;1.50;;
16242;SDS011;11719;51.052;6.982;2024-02-16T11:35:15;2.10;;;1.40;;
16242;SDS011;11719;51.052;6.982;2024-02-16T11:38:37;2.40;;;1.57;;
16242;SDS011;11719;51.052;6.982;2024-02-16T11:41:26;2.37;;;1.37;;
16242;SDS011;11719;51.052;6.982;2024-02-16T11:44:12;2.90;;;1.27;;
16242;SDS011;11719;51.052;6.982;2024-02-16T11:47:05;7.37;;;1.37;;
16242;SDS011;11719;51.052;6.982;2024-02-16T11:49:43;1.57;;;1.33;;
16242;SDS011;11719;51.052;6.982;2024-02-16T11:52:09;4.07;;;1.83;;
16242;SDS011;11719;51.052;6.982;2024-02-16T11:54:46;7.00;;;1.10;;
16242;SDS011;11719;51.052;6.982;2024-02-16T11:57:18;2.50;;;1.47;;
16242;SDS011;11719;51.052;6.982;2024-02-16T11:59:45;2.10;;;1.40;;
16242;SDS011;11719;51.052;6.982;2024-02-16T12:02:29;3.13;;;1.50;;
16242;SDS011;11719;51.052;6.982;2024-02-16T12:05:13;4.00;;;1.90;;
16242;SDS011;11719;51.052;6.982;2024-02-16T12:07:52;3.43;;;1.47;;
16242;SDS011;11719;51.052;6.982;2024-02-16T12:10:22;3.23;;;1.40;;
16242;SDS011;11719;51.052;6.982;2024-02-16T12:12:51;2.30;;;1.67;;
16242;SDS011;11719;51.052;6.982;2024-02-16T12:15:17;1.73;;;1.40;;
16242;SDS011;11719;51.052;6.982;2024-02-16T12:17:46;1.50;;;1.20;;
16242;SDS011;11719;51.052;6.982;2024-02-16T12:20:46;3.73;;;1.70;;
16242;SDS011;11719;51.052;6.982;2024-02-16T12:23:43;2.27;;;0.87;;
16242;SDS011;11719;51.052;6.982;2024-02-16T12:26:35;2.90;;;1.57;;
16242;SDS011;11719;51.052;6.982;2024-02-16T12:29:19;3.33;;;1.70;;
16242;SDS011;11719;51.052;6.982;2024-02-16T12:31:45;3.17;;;1.60;;
16242;SDS011;11719;51.052;6.982;2024-02-16T12:34:13;2.77;;;1.43;;
16242;SDS011;11719;51.052;6.982;2024-02-16T12:36:41;2.13;;;1.73;;
16242;SDS011;11719;51.052;6.982;2024-02-16T12:39:13;3.07;;;1.90;;
16242;SDS011;11719;51.052;6.982;2024-02-16T12:41:46;2.27;;;1.10;;
16242;SDS011;11719;51.052;6.982;2024-02-16T12:44:22;4.67;;;1.97;;
16242;SDS011;11719;51.052;6.982;2024-02-16T12:47:00;4.23;;;2.30;;
16242;SDS011;11719;51.052;6.982;2024-02-16T12:49:27;3.37;;;2.03;;
16242;SDS011;11719;51.052;6.982;2024-02-16T12:52:01;4.13;;;1.80;;
16242;SDS011;11719;51.052;6.982;2024-02-16T12:54:59;1.97;;;1.47;;
16242;SDS011;11719;51.052;6.982;2024-02-16T12:57:32;1.80;;;1.13;;
16242;SDS011;11719;51.052;6.982;2024-02-16T13:00:04;4.37;;;2.47;;
16242;SDS011;11719;51.052;6.982;2024-02-16T13:02:42;3.27;;;2.47;;
16242;SDS011;11719;51.052;6.982;2024-02-16T13:05:12;4.30;;;2.40;;
16242;SDS011;11719;51.052;6.982;2024-02-16T13:07:47;3.53;;;1.57;;
16242;SDS011;11719;51.052;6.982;2024-02-16T13:10:16;1.20;;;0.77;;
16242;SDS011;11719;51.052;6.982;2024-02-16T13:12:55;5.27;;;2.27;;
16242;SDS011;11719;51.052;6.982;2024-02-16T13:15:35;3.47;;;1.10;;
16242;SDS011;11719;51.052;6.982;2024-02-16T13:18:22;1.70;;;1.40;;
16242;SDS011;11719;51.052;6.982;2024-02-16T13:20:48;6.33;;;1.80;;
16242;SDS011;11719;51.052;6.982;2024-02-16T13:23:18;2.80;;;1.67;;
16242;SDS011;11719;51.052;6.982;2024-02-16T13:25:54;2.00;;;1.10;;
16242;SDS011;11719;51.052;6.982;2024-02-16T13:28:31;6.87;;;1.70;;
16242;SDS011;11719;51.052;6.982;2024-02-16T13:31:08;6.27;;;1.47;;
16242;SDS011;11719;51.052;6.982;2024-02-16T13:33:39;4.47;;;2.30;;
16242;SDS011;11719;51.052;6.982;2024-02-16T13:36:05;1.77;;;1.13;;
16242;SDS011;11719;51.052;6.982;2024-02-16T13:38:31;1.63;;;0.93;;
16242;SDS011;11719;51.052;6.982;2024-02-16T13:40:57;2.10;;;1.17;;
16242;SDS011;11719;51.052;6.982;2024-02-16T13:43:30;1.83;;;1.20;;
16242;SDS011;11719;51.052;6.982;2024-02-16T13:46:00;2.23;;;1.03;;
16242;SDS011;11719;51.052;6.982;2024-02-16T13:48:48;1.37;;;1.13;;
16242;SDS011;11719;51.052;6.982;2024-02-16T13:51:18;1.10;;;0.70;;
16242;SDS011;11719;51.052;6.982;2024-02-16T13:53:53;1.20;;;1.10;;
16242;SDS011;11719;51.052;6.982;2024-02-16T13:56:32;4.07;;;1.93;;
16242;SDS011;11719;51.052;6.982;2024-02-16T13:59:02;5.17;;;1.63;;
16242;SDS011;11719;51.052;6.982;2024-02-16T14:01:28;1.43;;;0.77;;
16242;SDS011;11719;51.052;6.982;2024-02-16T14:04:05;1.80;;;0.90;;
16242;SDS011;11719;51.052;6.982;2024-02-16T14:06:31;2.03;;;0.93;;
16242;SDS011;11719;51.052;6.982;2024-02-16T14:08:56;2.80;;;1.90;;
16242;SDS011;11719;51.052;6.982;2024-02-16T14:11:25;1.37;;;0.90;;
16242;SDS011;11719;51.052;6.982;2024-02-16T14:13:51;1.70;;;1.10;;
16242;SDS011;11719;51.052;6.982;2024-02-16T14:16:23;2.40;;;1.40;;
16242;SDS011;11719;51.052;6.982;2024-02-16T14:18:52;1.23;;;0.80;;
16242;SDS011;11719;51.052;6.982;2024-02-16T14:21:30;4.23;;;2.40;;
16242;SDS011;11719;51.052;6.982;2024-02-16T14:24:11;3.00;;;2.03;;
16242;SDS011;11719;51.052;6.982;2024-02-16T14:26:51;4.87;;;2.67;;
16242;SDS011;11719;51.052;6.982;2024-02-16T14:29:48;6.90;;;2.33;;
16242;SDS011;11719;51.052;6.982;2024-02-16T14:32:24;2.80;;;2.20;;
16242;SDS011;11719;51.052;6.982;2024-02-16T14:35:02;8.63;;;2.37;;
16242;SDS011;11719;51.052;6.982;2024-02-16T14:37:32;6.20;;;2.43;;
16242;SDS011;11719;51.052;6.982;2024-02-16T14:40:00;2.63;;;2.30;;
16242;SDS011;11719;51.052;6.982;2024-02-16T14:42:28;4.00;;;1.87;;
16242;SDS011;11719;51.052;6.982;2024-02-16T14:45:04;3.67;;;2.10;;
16242;SDS011;11719;51.052;6.982;2024-02-16T14:47:45;3.93;;;2.33;;
16242;SDS011;11719;51.052;6.982;2024-02-16T14:50:11;3.10;;;2.63;;
16242;SDS011;11719;51.052;6.982;2024-02-16T14:52:43;3.67;;;2.67;;
16242;SDS011;11719;51.052;6.982;2024-02-16T14:55:11;3.90;;;2.03;;
16242;SDS011;11719;51.052;6.982;2024-02-16T14:57:41;3.30;;;2.50;;
16242;SDS011;11719;51.052;6.982;2024-02-16T15:00:13;3.33;;;2.50;;
16242;SDS011;11719;51.052;6.982;2024-02-16T15:02:40;3.07;;;2.60;;
16242;SDS011;11719;51.052;6.982;2024-02-16T15:05:32;3.97;;;2.07;;
16242;SDS011;11719;51.052;6.982;2024-02-16T15:08:15;4.97;;;2.40;;
16242;SDS011;11719;51.052;6.982;2024-02-16T15:10:55;6.03;;;2.37;;
16242;SDS011;11719;51.052;6.982;2024-02-16T15:13:24;3.30;;;2.33;;
16242;SDS011;11719;51.052;6.982;2024-02-16T15:16:07;3.97;;;2.27;;
16242;SDS011;11719;51.052;6.982;2024-02-16T15:18:44;3.50;;;1.80;;
16242;SDS011;11719;51.052;6.982;2024-02-16T15:21:22;2.63;;;2.33;;
16242;SDS011;11719;51.052;6.982;2024-02-16T15:24:05;3.87;;;2.20;;
16242;SDS011;11719;51.052;6.982;2024-02-16T15:26:37;2.57;;;2.30;;
16242;SDS011;11719;51.052;6.982;2024-02-16T15:29:15;2.03;;;1.60;;
16242;SDS011;11719;51.052;6.982;2024-02-16T15:31:50;3.93;;;2.17;;
16242;SDS011;11719;51.052;6.982;2024-02-16T15:34:38;3.83;;;2.27;;
16242;SDS011;11719;51.052;6.982;2024-02-16T15:37:08;7.70;;;2.80;;
16242;SDS011;11719;51.052;6.982;2024-02-16T15:39:52;2.80;;;2.13;;
16242;SDS011;11719;51.052;6.982;2024-02-16T15:42:38;4.63;;;2.27;;
16242;SDS011;11719;51.052;6.982;2024-02-16T15:45:42;3.90;;;2.60;;